createdAt,value
2022-12-15T00:02:35.838Z,62.05
2022-12-15T00:05:22.044Z,61.68
2022-12-15T00:08:07.781Z,62.18
2022-12-15T00:10:53.644Z,61.88
2022-12-15T00:13:39.012Z,62.24
2022-12-15T00:16:24.884Z,62.17
2022-12-15T00:19:10.381Z,62.07
2022-12-15T00:21:55.851Z,62.56
2022-12-15T00:24:41.273Z,62.19
2022-12-15T00:27:26.661Z,62.19
2022-12-15T00:30:12.221Z,62.54
2022-12-15T00:32:57.721Z,62.44
2022-12-15T00:35:43.572Z,62.82
2022-12-15T00:38:31.659Z,62.65
2022-12-15T00:41:01.660Z,62.70
2022-12-15T00:43:31.020Z,62.08
2022-12-15T00:46:17.639Z,62.79
2022-12-15T00:48:44.792Z,62.52
2022-12-15T00:51:12.211Z,62.56
2022-12-15T00:53:58.252Z,62.96
2022-12-15T00:56:43.972Z,63.25
2022-12-15T00:59:30.285Z,62.90
2022-12-15T01:02:15.921Z,63.15
2022-12-15T01:05:01.451Z,63.05
2022-12-15T01:07:49.958Z,63.04
2022-12-15T01:10:36.751Z,63.06
2022-12-15T01:13:23.377Z,62.71
2022-12-15T01:16:09.493Z,62.94
2022-12-15T01:18:55.148Z,62.76
2022-12-15T01:21:24.916Z,62.70
2022-12-15T01:23:52.719Z,62.68
2022-12-15T01:26:19.801Z,62.95
2022-12-15T01:28:46.776Z,62.88
2022-12-15T01:31:14.501Z,62.51
2022-12-15T01:33:43.889Z,62.65
2022-12-15T01:36:11.910Z,62.81
2022-12-15T01:38:39.001Z,62.56
2022-12-15T01:41:09.749Z,62.46
2022-12-15T01:43:39.911Z,62.91
2022-12-15T01:46:13.200Z,62.64
2022-12-15T01:48:49.171Z,62.86
2022-12-15T01:51:32.611Z,62.57
2022-12-15T01:53:59.573Z,62.75
2022-12-15T01:56:30.072Z,62.68
2022-12-15T01:59:03.330Z,62.62
2022-12-15T02:01:30.559Z,62.55
2022-12-15T02:03:57.591Z,62.56
2022-12-15T02:06:26.276Z,62.83
2022-12-15T02:08:55.801Z,62.90
2022-12-15T02:11:38.022Z,63.24
2022-12-15T02:14:07.635Z,62.76
2022-12-15T02:16:46.428Z,63.21
2022-12-15T02:19:35.292Z,63.27
2022-12-15T02:22:24.301Z,63.16
2022-12-15T02:24:57.054Z,62.97
2022-12-15T02:27:39.201Z,63.06
2022-12-15T02:30:38.725Z,62.44
2022-12-15T02:33:24.482Z,62.63
2022-12-15T02:36:04.632Z,62.71
2022-12-15T02:38:34.925Z,62.45
2022-12-15T02:41:04.121Z,62.82
2022-12-15T02:43:36.290Z,62.92
2022-12-15T02:46:13.466Z,62.91
2022-12-15T02:48:56.241Z,63.26
2022-12-15T02:52:00.088Z,62.98
2022-12-15T02:54:47.082Z,63.11
2022-12-15T02:57:38.721Z,62.73
2022-12-15T03:00:09.761Z,62.96
2022-12-15T03:02:41.434Z,62.63
2022-12-15T03:05:09.720Z,62.48
2022-12-15T03:07:36.586Z,62.83
2022-12-15T03:10:06.298Z,62.54
2022-12-15T03:12:33.340Z,62.86
2022-12-15T03:15:00.275Z,62.75
2022-12-15T03:17:27.281Z,62.65
2022-12-15T03:19:54.206Z,62.91
2022-12-15T03:22:21.221Z,62.78
2022-12-15T03:24:48.574Z,62.45
2022-12-15T03:27:15.952Z,62.46
2022-12-15T03:29:43.001Z,62.51
2022-12-15T03:32:10.280Z,62.10
2022-12-15T03:34:37.297Z,62.38
2022-12-15T03:37:04.273Z,62.37
2022-12-15T03:39:31.173Z,62.25
2022-12-15T03:41:58.004Z,62.34
2022-12-15T03:44:25.031Z,61.91
2022-12-15T03:46:51.982Z,61.97
2022-12-15T03:49:18.893Z,62.24
2022-12-15T03:51:45.804Z,62.24
2022-12-15T03:54:14.195Z,62.19
2022-12-15T03:56:41.211Z,62.60
2022-12-15T03:59:08.232Z,62.34
2022-12-15T04:01:36.932Z,62.23
2022-12-15T04:04:05.093Z,62.58
2022-12-15T04:06:32.149Z,62.57
2022-12-15T04:08:59.114Z,62.19
2022-12-15T04:11:26.161Z,62.42
2022-12-15T04:13:53.148Z,62.55
2022-12-15T04:16:20.608Z,62.98
2022-12-15T04:19:08.280Z,63.27
2022-12-15T04:21:35.321Z,62.90
2022-12-15T04:24:20.824Z,62.95
2022-12-15T04:27:06.381Z,63.09
2022-12-15T04:29:52.176Z,62.81
2022-12-15T04:32:37.821Z,63.03
2022-12-15T04:35:24.131Z,62.91
2022-12-15T04:38:09.891Z,63.10
2022-12-15T04:40:55.635Z,63.12
2022-12-15T04:43:41.391Z,63.53
2022-12-15T04:46:27.204Z,63.08
2022-12-15T04:49:12.811Z,63.46
2022-12-15T04:51:58.733Z,62.72
2022-12-15T04:54:44.731Z,62.61
2022-12-15T04:57:33.381Z,62.55
2022-12-15T05:00:20.024Z,62.38
2022-12-15T05:03:06.833Z,62.87
2022-12-15T05:05:52.495Z,62.91
2022-12-15T05:08:38.281Z,62.84
2022-12-15T05:11:24.053Z,63.12
2022-12-15T05:14:09.764Z,63.26
2022-12-15T05:16:55.512Z,63.25
2022-12-15T05:19:41.120Z,63.81
2022-12-15T05:22:26.774Z,63.81
2022-12-15T05:25:12.506Z,63.53
2022-12-15T05:27:57.898Z,63.65
2022-12-15T05:30:43.686Z,63.48
2022-12-15T05:33:10.834Z,63.58
2022-12-15T05:35:37.778Z,63.06
2022-12-15T05:38:07.592Z,63.34
2022-12-15T05:40:34.634Z,63.03
2022-12-15T05:43:01.656Z,63.26
2022-12-15T05:45:28.738Z,63.25
2022-12-15T05:47:56.420Z,63.07
2022-12-15T05:50:23.803Z,63.21
2022-12-15T05:52:50.910Z,63.23
2022-12-15T05:55:19.190Z,62.95
2022-12-15T05:57:53.896Z,63.38
2022-12-15T06:00:21.460Z,63.09
2022-12-15T06:02:48.703Z,62.98
2022-12-15T06:05:17.916Z,63.11
2022-12-15T06:07:44.995Z,63.24
2022-12-15T06:10:12.058Z,63.01
2022-12-15T06:12:39.057Z,63.41
2022-12-15T06:15:06.566Z,62.80
2022-12-15T06:17:33.683Z,63.08
2022-12-15T06:20:00.696Z,62.76
2022-12-15T06:22:29.978Z,62.92
2022-12-15T06:24:57.056Z,63.20
2022-12-15T06:27:24.145Z,63.11
2022-12-15T06:29:51.194Z,63.58
2022-12-15T06:32:18.077Z,63.84
2022-12-15T06:34:45.055Z,64.27
2022-12-15T06:37:12.909Z,64.60
2022-12-15T06:39:39.936Z,64.49
2022-12-15T06:42:06.876Z,64.30
2022-12-15T06:44:33.915Z,64.30
2022-12-15T06:47:00.869Z,64.35
2022-12-15T06:49:27.868Z,64.27
2022-12-15T06:51:55.024Z,64.46
2022-12-15T06:54:21.964Z,64.32
2022-12-15T06:56:50.048Z,63.72
2022-12-15T06:59:17.380Z,63.95
2022-12-15T07:01:44.597Z,63.63
2022-12-15T07:04:11.969Z,63.92
2022-12-15T07:06:40.147Z,63.95
2022-12-15T07:09:10.985Z,63.73
2022-12-15T07:11:38.080Z,63.87
2022-12-15T07:14:05.456Z,64.04
2022-12-15T07:16:33.125Z,63.84
2022-12-15T07:19:00.158Z,63.80
2022-12-15T07:21:27.154Z,64.22
2022-12-15T07:23:56.404Z,63.98
2022-12-15T07:26:24.886Z,63.92
2022-12-15T07:28:53.237Z,63.86
2022-12-15T07:31:20.195Z,63.71
2022-12-15T07:33:48.675Z,63.77
2022-12-15T07:36:16.337Z,63.26
2022-12-15T07:38:50.109Z,63.41
2022-12-15T07:41:18.826Z,63.04
2022-12-15T07:43:47.242Z,62.63
2022-12-15T07:46:14.487Z,63.25
2022-12-15T07:48:41.696Z,63.31
2022-12-15T07:51:17.216Z,63.02
2022-12-15T07:53:47.229Z,63.05
2022-12-15T07:56:15.602Z,63.20
2022-12-15T07:58:43.065Z,63.00
2022-12-15T08:01:13.079Z,62.55
2022-12-15T08:03:40.714Z,62.49
2022-12-15T08:06:11.415Z,62.20
2022-12-15T08:08:38.967Z,62.19
2022-12-15T08:11:11.091Z,62.01
2022-12-15T08:16:27.698Z,62.74
2022-12-15T08:18:54.807Z,62.39
2022-12-15T08:21:21.886Z,62.25
2022-12-15T08:23:49.649Z,62.24
2022-12-15T08:29:40.397Z,62.38
2022-12-15T08:31:54.076Z,62.21
2022-12-15T08:34:21.300Z,62.26
2022-12-15T08:36:48.338Z,62.29
2022-12-15T08:39:15.759Z,61.93
2022-12-15T08:41:42.897Z,61.87
2022-12-15T08:44:09.950Z,61.95
2022-12-15T08:46:36.949Z,61.58
2022-12-15T08:49:04.557Z,61.60
2022-12-15T08:51:33.467Z,61.64
2022-12-15T08:54:01.350Z,61.49
2022-12-15T08:56:29.517Z,61.20
2022-12-15T08:59:01.031Z,60.92
2022-12-15T09:01:30.239Z,60.75
2022-12-15T09:03:57.826Z,60.45
2022-12-15T09:06:27.768Z,60.50
2022-12-15T09:08:59.471Z,60.58
2022-12-15T09:11:27.480Z,59.82
2022-12-15T09:13:55.127Z,59.99
2022-12-15T09:16:23.499Z,60.08
2022-12-15T09:18:53.030Z,59.47
2022-12-15T09:21:25.339Z,59.83
2022-12-15T09:23:54.816Z,60.11
2022-12-15T09:26:23.526Z,59.61
2022-12-15T09:28:51.889Z,59.29
2022-12-15T09:31:24.637Z,58.53
2022-12-15T09:33:53.671Z,58.06
2022-12-15T09:36:21.310Z,57.86
2022-12-15T09:38:49.130Z,56.83
2022-12-15T09:41:16.036Z,56.85
2022-12-15T09:43:52.315Z,55.69
2022-12-15T09:46:57.208Z,55.43
2022-12-15T09:49:30.089Z,54.58
2022-12-15T09:52:19.687Z,53.64
2022-12-15T09:54:46.815Z,53.75
2022-12-15T09:57:44.927Z,53.07
2022-12-15T10:00:25.911Z,51.84
2022-12-15T10:03:18.128Z,52.75
2022-12-15T10:06:14.367Z,52.56
2022-12-15T10:08:43.428Z,52.17
2022-12-15T10:11:21.762Z,51.39
2022-12-15T10:14:16.387Z,51.93
2022-12-15T10:17:21.660Z,51.34
2022-12-15T10:20:05.735Z,51.76
2022-12-15T10:22:36.916Z,50.75
2022-12-15T10:28:16.234Z,50.24
2022-12-15T10:30:51.582Z,50.98
2022-12-15T10:33:22.816Z,49.57
2022-12-15T10:35:53.848Z,50.55
2022-12-15T10:38:35.452Z,50.28
2022-12-15T10:41:06.390Z,49.40
2022-12-15T10:43:42.508Z,49.76
2022-12-15T10:46:09.558Z,48.81
2022-12-15T10:48:37.690Z,49.77
2022-12-15T10:51:37.378Z,48.51
2022-12-15T10:54:10.444Z,48.66
2022-12-15T10:56:59.193Z,48.46
2022-12-15T10:59:34.748Z,47.75
2022-12-15T11:02:24.569Z,47.35
2022-12-15T11:05:02.871Z,47.58
2022-12-15T11:07:46.307Z,47.64
2022-12-15T11:10:14.518Z,48.40
2022-12-15T11:12:58.246Z,47.72
2022-12-15T11:15:51.384Z,48.38
2022-12-15T11:18:32.698Z,48.15
2022-12-15T11:21:05.540Z,47.43
2022-12-15T11:23:38.826Z,47.17
2022-12-15T11:26:26.667Z,46.27
2022-12-15T11:29:07.147Z,46.71
2022-12-15T11:31:44.379Z,46.31
2022-12-15T11:34:14.307Z,45.19
2022-12-15T11:36:50.600Z,44.68
2022-12-15T11:39:25.687Z,43.77
2022-12-15T11:42:25.156Z,44.56
2022-12-15T11:45:05.606Z,43.95
2022-12-15T11:47:40.917Z,43.40
2022-12-15T11:50:26.587Z,43.80
2022-12-15T11:53:14.926Z,44.08
2022-12-15T11:56:00.549Z,44.08
2022-12-15T11:58:43.918Z,43.06
2022-12-15T12:13:41.119Z,43.08
2022-12-15T12:16:31.598Z,43.43
2022-12-15T12:19:06.018Z,42.58
2022-12-15T12:21:44.350Z,42.80
2022-12-15T12:24:29.500Z,41.03
2022-12-15T12:27:02.128Z,40.82
2022-12-15T12:29:42.076Z,40.26
2022-12-15T12:32:30.696Z,39.91
2022-12-15T12:35:31.859Z,39.15
2022-12-15T12:37:50.898Z,39.49
2022-12-15T12:40:25.917Z,39.55
2022-12-15T12:42:57.538Z,39.33
2022-12-15T12:45:50.474Z,39.83
2022-12-15T12:48:39.042Z,39.97
2022-12-15T12:51:26.826Z,39.82
2022-12-15T12:53:55.086Z,39.83
2022-12-15T12:56:33.981Z,40.00
2022-12-15T12:59:01.048Z,40.68
2022-12-15T13:01:33.356Z,41.03
2022-12-15T13:04:09.911Z,41.25
2022-12-15T13:06:36.778Z,42.17
2022-12-15T13:09:19.536Z,42.78
2022-12-15T13:11:49.479Z,42.75
2022-12-15T13:14:26.888Z,42.07
2022-12-15T13:17:26.639Z,41.90
2022-12-15T13:19:57.157Z,42.82
2022-12-15T13:22:35.764Z,42.98
2022-12-15T13:25:27.255Z,43.27
2022-12-15T13:28:11.728Z,43.11
2022-12-15T13:31:17.069Z,43.22
2022-12-15T13:34:13.150Z,44.51
2022-12-15T13:36:40.138Z,44.70
2022-12-15T13:39:13.227Z,45.74
2022-12-15T13:42:07.419Z,45.83
2022-12-15T13:44:41.432Z,47.18
2022-12-15T13:47:20.397Z,48.16
2022-12-15T13:50:02.142Z,48.88
2022-12-15T13:53:17.341Z,49.97
2022-12-15T13:55:38.262Z,49.45
2022-12-15T13:58:16.886Z,49.19
2022-12-15T14:00:53.525Z,51.23
2022-12-15T14:03:20.896Z,51.85
2022-12-15T14:05:53.992Z,50.97
2022-12-15T14:08:23.537Z,52.50
2022-12-15T14:10:56.066Z,51.90
2022-12-15T14:13:26.866Z,51.91
2022-12-15T14:16:00.622Z,51.96
2022-12-15T14:18:33.827Z,52.88
2022-12-15T14:21:05.279Z,52.54
2022-12-15T14:24:11.042Z,54.45
2022-12-15T14:26:31.996Z,53.05
2022-12-15T14:29:05.625Z,54.19
2022-12-15T14:31:33.298Z,54.49
2022-12-15T14:34:09.286Z,55.04
2022-12-15T14:36:36.970Z,55.43
2022-12-15T14:39:12.187Z,55.67
2022-12-15T14:41:45.447Z,55.61
2022-12-15T14:44:36.284Z,55.42
2022-12-15T14:47:08.574Z,56.33
2022-12-15T14:49:45.470Z,56.32
2022-12-15T14:52:26.316Z,56.48
2022-12-15T14:54:59.206Z,56.58
2022-12-15T14:57:44.580Z,55.96
2022-12-15T15:00:32.702Z,56.22
2022-12-15T15:03:11.089Z,50.71
2022-12-15T15:05:51.802Z,56.62
2022-12-15T15:08:35.410Z,57.03
2022-12-15T15:11:18.774Z,57.14
2022-12-15T15:13:47.116Z,57.31
2022-12-15T15:16:16.079Z,57.36
2022-12-15T15:18:44.027Z,57.40
2022-12-15T15:21:19.090Z,57.47
2022-12-15T15:24:04.030Z,57.64
2022-12-15T15:26:31.559Z,58.19
2022-12-15T15:28:58.788Z,57.90
2022-12-15T15:31:25.818Z,57.87
2022-12-15T15:33:53.568Z,58.20
2022-12-15T15:36:22.055Z,58.81
2022-12-15T15:38:49.117Z,58.20
2022-12-15T15:41:18.300Z,57.98
2022-12-15T15:43:45.967Z,58.33
2022-12-15T15:46:16.198Z,58.30
2022-12-15T15:48:50.329Z,58.19
2022-12-15T15:51:17.846Z,57.65
2022-12-15T15:53:46.115Z,58.75
2022-12-15T15:56:14.841Z,58.99
2022-12-15T15:58:44.019Z,58.76
2022-12-15T16:01:13.493Z,59.03
2022-12-15T16:03:41.572Z,59.00
2022-12-15T16:06:17.503Z,59.03
2022-12-15T16:08:46.976Z,59.61
2022-12-15T16:11:14.074Z,59.36
2022-12-15T16:13:40.974Z,59.84
2022-12-15T16:16:18.917Z,59.68
2022-12-15T16:18:46.232Z,60.14
2022-12-15T16:21:14.733Z,59.96
2022-12-15T16:23:45.104Z,60.09
2022-12-15T16:26:17.929Z,60.36
2022-12-15T16:28:44.837Z,60.25
2022-12-15T16:31:16.403Z,60.28
2022-12-15T16:33:43.550Z,59.58
2022-12-15T16:36:14.050Z,60.17
2022-12-15T16:38:41.411Z,60.36
2022-12-15T16:41:14.620Z,60.15
2022-12-15T16:43:47.730Z,60.17
2022-12-15T16:46:16.271Z,60.27
2022-12-15T16:48:43.671Z,60.19
2022-12-15T16:51:34.399Z,60.19
2022-12-15T16:54:01.707Z,60.48
2022-12-15T16:56:28.735Z,61.05
2022-12-15T16:59:15.563Z,61.11
2022-12-15T17:01:45.080Z,61.28
2022-12-15T17:04:12.445Z,61.03
2022-12-15T17:06:39.908Z,61.05
2022-12-15T17:09:08.987Z,60.77
2022-12-15T17:11:36.172Z,60.86
2022-12-15T17:14:03.201Z,61.21
2022-12-15T17:16:30.222Z,61.02
2022-12-15T17:18:57.688Z,61.04
2022-12-15T17:21:30.849Z,61.38
2022-12-15T17:24:12.231Z,61.02
2022-12-15T17:26:39.409Z,61.13
2022-12-15T17:29:17.048Z,61.19
2022-12-15T17:31:44.071Z,60.96
2022-12-15T17:34:25.928Z,61.40
2022-12-15T17:36:53.077Z,61.14
2022-12-15T17:39:22.101Z,61.29
2022-12-15T17:42:01.001Z,61.04
2022-12-15T17:44:37.951Z,61.52
2022-12-15T17:47:08.835Z,61.30
2022-12-15T17:49:38.592Z,61.75
2022-12-15T17:52:36.978Z,61.52
2022-12-15T17:55:11.029Z,61.71
2022-12-15T17:57:38.057Z,61.22
2022-12-15T18:00:26.056Z,61.69
2022-12-15T18:02:54.607Z,61.68
2022-12-15T18:05:23.970Z,61.66
2022-12-15T18:07:55.129Z,62.00
2022-12-15T18:10:24.566Z,62.09
2022-12-15T18:12:51.641Z,62.35
2022-12-15T18:15:22.811Z,61.89
2022-12-15T18:17:50.126Z,62.20
2022-12-15T18:20:18.137Z,62.37
2022-12-15T18:22:46.528Z,62.17
2022-12-15T18:25:19.678Z,62.33
2022-12-15T18:27:47.031Z,62.27
2022-12-15T18:30:21.931Z,62.63
2022-12-15T18:32:51.168Z,62.41
2022-12-15T18:35:40.226Z,61.58
2022-12-15T18:38:16.408Z,61.29
2022-12-15T18:40:45.837Z,61.25
2022-12-15T18:43:15.941Z,61.22
2022-12-15T18:45:44.048Z,62.41
2022-12-15T18:48:33.481Z,62.35
2022-12-15T18:51:02.708Z,63.05
2022-12-15T18:53:35.920Z,63.26
2022-12-15T18:56:06.309Z,63.14
2022-12-15T18:58:38.123Z,62.64
2022-12-15T19:01:06.213Z,63.35
2022-12-15T19:03:35.237Z,63.28
2022-12-15T19:06:25.442Z,63.72
2022-12-15T19:08:53.090Z,63.75
2022-12-15T19:11:35.869Z,64.16
2022-12-15T19:14:04.946Z,63.95
2022-12-15T19:16:52.120Z,63.82
2022-12-15T19:19:37.872Z,63.74
2022-12-15T19:22:31.299Z,63.40
2022-12-15T19:24:59.819Z,63.77
2022-12-15T19:27:27.368Z,63.59
2022-12-15T19:29:55.176Z,63.71
2022-12-15T19:32:27.024Z,64.11
2022-12-15T19:34:53.968Z,63.66
2022-12-15T19:37:27.803Z,64.05
2022-12-15T19:39:57.111Z,63.54
2022-12-15T19:42:36.439Z,63.82
2022-12-15T19:45:24.485Z,63.81
2022-12-15T19:47:51.677Z,63.67
2022-12-15T19:50:28.407Z,63.42
2022-12-15T19:52:59.707Z,63.89
2022-12-15T19:55:32.868Z,63.98
2022-12-15T19:58:01.399Z,63.86
2022-12-15T20:00:28.568Z,64.25
2022-12-15T20:02:55.869Z,64.10
2022-12-15T20:05:24.799Z,63.91
2022-12-15T20:07:55.078Z,64.12
2022-12-15T20:10:31.288Z,63.19
2022-12-15T20:13:00.276Z,63.64
2022-12-15T20:15:27.527Z,63.92
2022-12-15T20:17:58.113Z,63.93
2022-12-15T20:20:28.268Z,63.89
2022-12-15T20:22:57.786Z,63.58
2022-12-15T20:25:32.527Z,63.62
2022-12-15T20:28:00.847Z,62.99
2022-12-15T20:30:32.851Z,63.62
2022-12-15T20:33:04.289Z,64.09
2022-12-15T20:35:35.026Z,64.51
2022-12-15T20:38:13.687Z,64.81
2022-12-15T20:40:40.728Z,64.77
2022-12-15T20:43:19.476Z,64.76
2022-12-15T20:45:51.990Z,65.04
2022-12-15T20:48:22.063Z,65.09
2022-12-15T20:50:50.007Z,65.11
2022-12-15T20:53:23.423Z,64.92
2022-12-15T20:55:52.609Z,65.01
2022-12-15T20:58:20.666Z,65.05
2022-12-15T21:00:49.233Z,64.67
2022-12-15T21:03:30.316Z,65.09
2022-12-15T21:05:58.811Z,65.07
2022-12-15T21:08:29.846Z,65.12
2022-12-15T21:11:01.800Z,65.08
2022-12-15T21:13:33.366Z,65.39
2022-12-15T21:16:01.046Z,64.95
2022-12-15T21:21:26.428Z,65.21
2022-12-15T21:23:53.667Z,65.15
2022-12-15T21:26:23.045Z,65.18
2022-12-15T21:28:54.748Z,65.22
2022-12-15T21:31:22.229Z,65.23
2022-12-15T21:33:49.510Z,65.28
2022-12-15T21:36:19.553Z,65.14
2022-12-15T21:38:49.487Z,65.26
2022-12-15T21:41:21.098Z,65.24
2022-12-15T21:43:48.937Z,65.38
2022-12-15T21:46:23.479Z,65.13
2022-12-15T21:49:11.856Z,65.10
2022-12-15T21:51:39.995Z,64.89
2022-12-15T21:54:28.857Z,65.41
2022-12-15T21:56:58.167Z,65.11
2022-12-15T21:59:30.015Z,65.30
2022-12-15T22:01:57.142Z,65.78
2022-12-15T22:04:28.399Z,65.63
2022-12-15T22:06:55.407Z,66.30
2022-12-15T22:09:22.469Z,66.21
2022-12-15T22:11:53.851Z,65.95
2022-12-15T22:14:28.696Z,65.70
2022-12-15T22:16:56.457Z,65.60
2022-12-15T22:19:24.230Z,65.05
2022-12-15T22:21:52.209Z,65.61
2022-12-15T22:24:19.786Z,65.48
2022-12-15T22:26:47.348Z,66.05
2022-12-15T22:29:18.559Z,66.15
2022-12-15T22:31:47.408Z,66.02
2022-12-15T22:34:17.219Z,66.48
2022-12-15T22:36:44.568Z,65.96
2022-12-15T22:39:12.269Z,66.21
2022-12-15T22:41:41.179Z,66.31
2022-12-15T22:44:21.827Z,66.89
2022-12-15T22:46:50.118Z,66.87
2022-12-15T22:49:23.519Z,67.14
2022-12-15T22:51:50.547Z,67.30
2022-12-15T22:54:19.208Z,67.03
2022-12-15T22:56:49.511Z,66.50
2022-12-15T22:59:43.689Z,66.26
2022-12-15T23:02:11.287Z,65.89
2022-12-15T23:04:38.308Z,65.75
2022-12-15T23:07:11.865Z,65.39
2022-12-15T23:09:38.888Z,66.24
2022-12-15T23:12:05.990Z,66.40
2022-12-15T23:14:51.446Z,66.21
2022-12-15T23:17:18.532Z,65.96
2022-12-15T23:19:46.438Z,66.26
2022-12-15T23:22:14.057Z,66.76
2022-12-15T23:24:41.286Z,66.52
2022-12-15T23:27:11.866Z,66.58
2022-12-15T23:29:38.912Z,66.83
2022-12-15T23:32:06.229Z,67.23
2022-12-15T23:34:33.147Z,68.35
2022-12-15T23:37:00.130Z,68.48
2022-12-15T23:39:27.270Z,68.75
2022-12-15T23:41:54.237Z,68.82
2022-12-15T23:44:21.756Z,69.03
2022-12-15T23:46:48.869Z,68.95
2022-12-15T23:49:15.916Z,69.21
2022-12-15T23:51:42.957Z,69.17
2022-12-15T23:54:10.349Z,68.41
2022-12-15T23:56:39.538Z,69.24
2022-12-15T23:59:06.886Z,69.30
